createdAt,value
2017-09-02T00:00:04.323Z,3.30
2017-09-02T00:02:32.652Z,3.50
2017-09-02T00:05:00.997Z,4.43
2017-09-02T00:07:29.345Z,3.73
2017-09-02T00:09:57.682Z,3.13
2017-09-02T00:12:26.021Z,3.37
2017-09-02T00:14:54.334Z,2.83
2017-09-02T00:17:22.943Z,3.40
2017-09-02T00:19:51.288Z,3.73
2017-09-02T00:22:19.622Z,3.70
2017-09-02T00:24:47.988Z,3.73
2017-09-02T00:27:16.295Z,3.03
2017-09-02T00:29:44.643Z,2.90
2017-09-02T00:32:12.985Z,2.93
2017-09-02T00:34:41.322Z,3.10
2017-09-02T00:37:09.646Z,3.40
2017-09-02T00:39:37.990Z,3.20
2017-09-02T00:42:06.326Z,3.50
2017-09-02T00:44:34.656Z,2.97
2017-09-02T00:47:03.002Z,2.77
2017-09-02T00:49:31.323Z,3.00
2017-09-02T00:51:59.656Z,2.80
2017-09-02T00:54:28.011Z,3.10
2017-09-02T00:56:56.343Z,2.93
2017-09-02T00:59:24.692Z,3.03
2017-09-02T01:01:53.035Z,2.60
2017-09-02T01:04:21.648Z,2.93
2017-09-02T01:06:49.982Z,2.40
2017-09-02T01:09:18.314Z,2.50
2017-09-02T01:11:46.668Z,2.37
2017-09-02T01:14:14.997Z,2.57
2017-09-02T01:16:43.347Z,2.57
2017-09-02T01:19:11.678Z,2.80
2017-09-02T01:21:40.044Z,2.70
2017-09-02T01:24:08.375Z,2.70
2017-09-02T01:26:36.716Z,2.57
2017-09-02T01:29:05.076Z,2.87
2017-09-02T01:31:34.303Z,2.97
2017-09-02T01:34:02.902Z,2.33
2017-09-02T01:36:31.228Z,2.73
2017-09-02T01:38:59.559Z,2.80
2017-09-02T01:41:27.895Z,2.67
2017-09-02T01:43:56.213Z,3.00
2017-09-02T01:46:24.558Z,2.87
2017-09-02T01:48:52.866Z,3.03
2017-09-02T01:51:21.228Z,2.70
2017-09-02T01:53:49.572Z,2.50
2017-09-02T01:56:17.913Z,2.50
2017-09-02T01:58:46.251Z,2.90
2017-09-02T02:01:14.584Z,2.97
2017-09-02T02:03:42.929Z,2.70
2017-09-02T02:06:11.310Z,2.50
2017-09-02T02:08:39.666Z,2.97
2017-09-02T02:11:08.011Z,2.70
2017-09-02T02:13:36.333Z,2.60
2017-09-02T02:16:04.704Z,2.87
2017-09-02T02:18:33.023Z,2.73
2017-09-02T02:21:01.374Z,2.73
2017-09-02T02:23:29.698Z,2.63
2017-09-02T02:25:58.039Z,2.80
2017-09-02T02:28:26.356Z,2.80
2017-09-02T02:30:55.360Z,2.63
2017-09-02T02:33:24.142Z,3.33
2017-09-02T02:35:54.677Z,2.80
2017-09-02T02:38:23.550Z,3.23
2017-09-02T02:40:52.766Z,2.83
2017-09-02T02:43:21.551Z,2.97
2017-09-02T02:45:50.102Z,3.03
2017-09-02T02:48:18.487Z,2.90
2017-09-02T02:50:46.828Z,2.87
2017-09-02T02:53:15.163Z,2.60
2017-09-02T02:55:43.500Z,2.70
2017-09-02T02:58:11.840Z,3.00
2017-09-02T03:00:40.196Z,2.57
2017-09-02T03:03:08.515Z,2.40
2017-09-02T03:05:36.842Z,2.53
2017-09-02T03:08:05.179Z,2.87
2017-09-02T03:10:33.532Z,3.20
2017-09-02T03:13:01.885Z,2.40
2017-09-02T03:15:30.225Z,2.77
2017-09-02T03:17:58.582Z,2.47
2017-09-02T03:20:26.896Z,2.77
2017-09-02T03:22:55.498Z,2.60
2017-09-02T03:25:23.873Z,3.30
2017-09-02T03:27:52.178Z,2.80
2017-09-02T03:30:20.521Z,2.93
2017-09-02T03:32:48.924Z,3.37
2017-09-02T03:35:17.272Z,2.70
2017-09-02T03:37:45.621Z,2.60
2017-09-02T03:40:14.881Z,3.20
2017-09-02T03:42:43.220Z,2.90
2017-09-02T03:45:11.541Z,2.70
2017-09-02T03:47:39.885Z,2.80
2017-09-02T03:50:08.218Z,2.50
2017-09-02T03:52:36.582Z,2.90
2017-09-02T03:55:04.908Z,2.70
2017-09-02T03:57:33.511Z,3.00
2017-09-02T04:00:01.876Z,2.90
2017-09-02T04:02:30.241Z,2.90
2017-09-02T04:04:58.599Z,3.00
2017-09-02T04:07:26.925Z,3.13
2017-09-02T04:09:55.277Z,3.67
2017-09-02T04:12:23.611Z,2.90
2017-09-02T04:14:51.972Z,2.90
2017-09-02T04:17:20.317Z,2.83
2017-09-02T04:19:48.654Z,2.80
2017-09-02T04:22:17.005Z,3.40
2017-09-02T04:24:45.349Z,2.93
2017-09-02T04:27:13.696Z,3.37
2017-09-02T04:29:42.022Z,2.90
2017-09-02T04:32:10.621Z,3.10
2017-09-02T04:34:38.959Z,2.90
2017-09-02T04:37:07.285Z,3.93
2017-09-02T04:39:35.633Z,2.20
2017-09-02T04:42:03.968Z,3.60
2017-09-02T04:44:32.313Z,2.53
2017-09-02T04:47:00.693Z,2.90
2017-09-02T04:49:29.881Z,2.60
2017-09-02T04:51:58.250Z,2.50
2017-09-02T04:54:26.608Z,3.70
2017-09-02T04:56:54.960Z,3.00
2017-09-02T04:59:23.282Z,2.83
2017-09-02T05:01:51.620Z,2.90
2017-09-02T05:04:19.969Z,2.50
2017-09-02T05:06:48.597Z,2.80
2017-09-02T05:09:16.958Z,3.13
2017-09-02T05:11:45.286Z,2.93
2017-09-02T05:14:13.627Z,2.67
2017-09-02T05:16:41.957Z,2.60
2017-09-02T05:19:10.322Z,2.70
2017-09-02T05:21:38.652Z,2.70
2017-09-02T05:24:07.280Z,3.00
2017-09-02T05:26:35.625Z,2.97
2017-09-02T05:29:03.976Z,3.00
2017-09-02T05:31:32.326Z,2.53
2017-09-02T05:34:00.666Z,2.90
2017-09-02T05:36:29.032Z,3.00
2017-09-02T05:38:57.369Z,2.80
2017-09-02T05:41:26.250Z,3.27
2017-09-02T05:43:54.606Z,2.50
2017-09-02T05:46:22.936Z,2.70
2017-09-02T05:48:51.267Z,3.23
2017-09-02T05:51:19.589Z,3.30
2017-09-02T05:53:47.943Z,3.17
2017-09-02T05:56:16.286Z,3.33
2017-09-02T05:58:44.927Z,3.20
2017-09-02T06:01:13.269Z,3.27
2017-09-02T06:03:41.616Z,5.43
2017-09-02T06:06:09.997Z,3.33
2017-09-02T06:08:38.325Z,3.10
2017-09-02T06:11:06.682Z,2.97
2017-09-02T06:13:34.993Z,3.37
2017-09-02T06:16:03.881Z,3.03
2017-09-02T06:18:32.226Z,3.00
2017-09-02T06:21:00.574Z,3.80
2017-09-02T06:23:28.926Z,3.70
2017-09-02T06:25:58.026Z,3.60
2017-09-02T06:28:26.367Z,3.70
2017-09-02T06:30:54.676Z,3.57
2017-09-02T06:33:22.987Z,3.83
2017-09-02T06:35:51.323Z,4.67
2017-09-02T06:38:19.660Z,4.10
2017-09-02T06:40:48.007Z,3.67
2017-09-02T06:43:16.338Z,3.77
2017-09-02T06:45:44.992Z,3.93
2017-09-02T06:48:14.256Z,3.70
2017-09-02T06:50:42.594Z,4.17
2017-09-02T06:53:10.953Z,4.57
2017-09-02T06:55:39.278Z,4.67
2017-09-02T06:58:07.637Z,5.57
2017-09-02T07:00:36.061Z,4.80
2017-09-02T07:03:04.421Z,6.60
2017-09-02T07:05:32.777Z,6.77
2017-09-02T07:08:01.124Z,7.30
2017-09-02T07:10:29.485Z,7.20
2017-09-02T07:12:57.837Z,10.53
2017-09-02T07:15:26.203Z,11.70
2017-09-02T07:17:54.559Z,10.37
2017-09-02T07:20:23.163Z,9.30
2017-09-02T07:22:51.496Z,8.37
2017-09-02T07:25:19.844Z,8.60
2017-09-02T07:27:48.281Z,10.80
2017-09-02T07:30:16.608Z,9.20
2017-09-02T07:32:44.964Z,11.43
2017-09-02T07:35:13.309Z,12.40
2017-09-02T07:37:41.695Z,16.17
2017-09-02T07:40:10.033Z,16.17
2017-09-02T07:42:38.399Z,15.50
2017-09-02T07:45:06.792Z,16.37
2017-09-02T07:47:35.140Z,14.93
2017-09-02T07:50:03.496Z,16.17
2017-09-02T07:52:31.843Z,14.90
2017-09-02T07:55:00.198Z,14.17
2017-09-02T07:57:28.536Z,14.30
2017-09-02T07:59:56.926Z,13.53
2017-09-02T08:02:25.285Z,13.77
2017-09-02T08:04:53.636Z,12.83
2017-09-02T08:07:22.494Z,12.23
2017-09-02T08:09:50.844Z,12.60
2017-09-02T08:12:19.191Z,11.63
2017-09-02T08:14:47.549Z,12.80
2017-09-02T08:17:15.890Z,12.50
2017-09-02T08:19:44.281Z,12.10
2017-09-02T08:22:12.623Z,9.87
2017-09-02T08:24:40.982Z,10.37
2017-09-02T08:27:09.305Z,12.17
2017-09-02T08:29:37.672Z,11.87
2017-09-02T08:32:06.024Z,11.70
2017-09-02T08:34:34.396Z,10.90
2017-09-02T08:37:02.750Z,10.97
2017-09-02T08:39:31.089Z,12.33
2017-09-02T08:41:59.436Z,11.17
2017-09-02T08:44:27.773Z,11.60
2017-09-02T08:46:56.584Z,11.60
2017-09-02T08:49:24.924Z,12.07
2017-09-02T08:51:53.268Z,11.57
2017-09-02T08:54:21.631Z,11.73
2017-09-02T08:56:49.980Z,10.50
2017-09-02T08:59:18.333Z,10.33
2017-09-02T09:01:46.677Z,10.07
2017-09-02T09:04:15.573Z,10.87
2017-09-02T09:06:43.934Z,9.83
2017-09-02T09:09:12.277Z,11.23
2017-09-02T09:11:40.656Z,10.27
2017-09-02T09:14:08.993Z,9.03
2017-09-02T09:16:37.354Z,9.60
2017-09-02T09:19:05.702Z,9.60
2017-09-02T09:21:34.065Z,8.70
2017-09-02T09:24:02.413Z,9.33
2017-09-02T09:26:30.750Z,10.27
2017-09-02T09:28:59.095Z,10.30
2017-09-02T09:31:27.413Z,9.70
2017-09-02T09:33:56.140Z,10.00
2017-09-02T09:36:24.477Z,8.70
2017-09-02T09:38:52.830Z,8.20
2017-09-02T09:41:21.206Z,9.30
2017-09-02T09:43:49.563Z,10.57
2017-09-02T09:46:17.929Z,9.90
2017-09-02T09:48:46.261Z,8.73
2017-09-02T09:51:14.608Z,7.30
2017-09-02T09:53:42.940Z,7.10
2017-09-02T09:56:11.332Z,7.93
2017-09-02T09:58:39.686Z,8.33
2017-09-02T10:01:08.027Z,7.80
2017-09-02T10:03:36.391Z,7.33
2017-09-02T10:06:04.737Z,8.90
2017-09-02T10:08:33.092Z,8.60
2017-09-02T10:11:01.412Z,8.20
2017-09-02T10:13:29.756Z,7.70
2017-09-02T10:15:58.100Z,5.93
2017-09-02T10:18:26.440Z,6.53
2017-09-02T10:20:54.782Z,5.97
2017-09-02T10:23:23.124Z,5.43
2017-09-02T10:25:51.819Z,6.00
2017-09-02T10:28:20.147Z,5.70
2017-09-02T10:30:48.467Z,5.67
2017-09-02T10:33:16.799Z,5.00
2017-09-02T10:35:45.143Z,6.40
2017-09-02T10:38:13.503Z,6.67
2017-09-02T10:40:41.939Z,5.40
2017-09-02T10:43:10.303Z,5.70
2017-09-02T10:45:39.061Z,6.10
2017-09-02T10:48:07.408Z,7.00
2017-09-02T10:50:35.780Z,6.53
2017-09-02T10:53:04.314Z,6.87
2017-09-02T10:55:32.693Z,8.23
2017-09-02T10:58:01.961Z,7.50
2017-09-02T11:00:30.314Z,7.30
2017-09-02T11:02:58.684Z,6.47
2017-09-02T11:05:27.008Z,7.40
2017-09-02T11:07:55.370Z,6.70
2017-09-02T11:10:23.702Z,6.23
2017-09-02T11:12:52.062Z,7.03
2017-09-02T11:15:20.403Z,9.30
2017-09-02T11:17:48.765Z,8.10
2017-09-02T11:20:17.137Z,8.20
2017-09-02T11:22:45.484Z,9.83
2017-09-02T11:25:13.844Z,7.53
2017-09-02T11:27:42.190Z,9.17
2017-09-02T11:30:10.536Z,7.03
2017-09-02T11:32:38.860Z,7.63
2017-09-02T11:35:07.223Z,8.97
2017-09-02T11:37:35.587Z,9.97
2017-09-02T11:40:04.638Z,10.20
2017-09-02T11:42:32.999Z,10.97
2017-09-02T11:45:01.345Z,10.37
2017-09-02T11:47:29.759Z,10.17
2017-09-02T11:49:58.100Z,10.00
2017-09-02T11:52:26.447Z,8.73
2017-09-02T11:54:54.809Z,11.30
2017-09-02T11:57:23.147Z,10.03
2017-09-02T11:59:51.522Z,10.50
2017-09-02T12:02:19.866Z,11.23
2017-09-02T12:04:48.221Z,11.63
2017-09-02T12:07:16.567Z,11.37
2017-09-02T12:09:44.931Z,12.97
2017-09-02T12:12:13.302Z,12.00
2017-09-02T12:14:41.647Z,10.10
2017-09-02T12:17:10.015Z,9.70
2017-09-02T12:19:38.354Z,10.40
2017-09-02T12:22:07.459Z,11.07
2017-09-02T12:24:35.814Z,11.10
2017-09-02T12:27:04.182Z,8.80
2017-09-02T12:29:32.527Z,6.23
2017-09-02T12:32:00.882Z,5.90
2017-09-02T12:34:29.257Z,5.37
2017-09-02T12:36:57.607Z,6.03
2017-09-02T12:39:25.967Z,5.53
2017-09-02T12:41:54.298Z,5.37
2017-09-02T12:44:22.656Z,5.07
2017-09-02T12:46:51.010Z,3.80
2017-09-02T12:49:19.344Z,4.80
2017-09-02T12:51:47.694Z,3.80
2017-09-02T12:54:16.028Z,4.57
2017-09-02T12:56:44.391Z,8.00
2017-09-02T12:59:12.744Z,3.60
2017-09-02T13:01:41.083Z,3.70
2017-09-02T13:04:09.444Z,3.10
2017-09-02T13:06:37.790Z,2.83
2017-09-02T13:09:06.153Z,13.87
2017-09-02T13:11:34.491Z,2.80
2017-09-02T13:14:03.167Z,2.50
2017-09-02T13:16:31.513Z,2.50
2017-09-02T13:18:59.857Z,2.50
2017-09-02T13:21:28.200Z,2.67
2017-09-02T13:23:56.525Z,2.63
2017-09-02T13:26:25.387Z,2.60
2017-09-02T13:28:53.753Z,1.93
2017-09-02T13:31:22.120Z,2.37
2017-09-02T13:33:50.477Z,2.03
2017-09-02T13:36:18.811Z,2.93
2017-09-02T13:38:47.225Z,2.20
2017-09-02T13:41:15.575Z,2.17
2017-09-02T13:43:43.942Z,2.67
2017-09-02T13:46:12.272Z,3.00
2017-09-02T13:48:41.016Z,2.10
2017-09-02T13:51:09.369Z,2.50
2017-09-02T13:53:37.731Z,2.70
2017-09-02T13:56:08.046Z,25.33
2017-09-02T13:58:36.386Z,3.47
2017-09-02T14:01:05.506Z,3.63
2017-09-02T14:03:33.824Z,4.47
2017-09-02T14:06:02.176Z,4.40
2017-09-02T14:08:30.545Z,4.20
2017-09-02T14:10:58.885Z,4.40
2017-09-02T14:13:27.228Z,4.17
2017-09-02T14:15:55.563Z,4.80
2017-09-02T14:18:24.405Z,4.80
2017-09-02T14:20:52.735Z,5.00
2017-09-02T14:23:21.097Z,4.80
2017-09-02T14:25:49.492Z,4.50
2017-09-02T14:28:17.820Z,5.60
2017-09-02T14:30:47.082Z,5.23
2017-09-02T14:33:15.404Z,4.63
2017-09-02T14:35:43.756Z,5.47
2017-09-02T14:38:12.098Z,5.23
2017-09-02T14:40:40.453Z,5.10
2017-09-02T14:43:08.813Z,5.90
2017-09-02T14:45:37.141Z,5.37
2017-09-02T14:48:05.482Z,5.73
2017-09-02T14:50:33.818Z,5.80
2017-09-02T14:53:02.184Z,6.23
2017-09-02T14:55:30.500Z,6.40
2017-09-02T14:57:58.844Z,7.23
2017-09-02T15:00:27.206Z,6.50
2017-09-02T15:02:55.559Z,7.13
2017-09-02T15:05:23.952Z,6.50
2017-09-02T15:07:52.674Z,6.57
2017-09-02T15:10:21.045Z,6.43
2017-09-02T15:12:49.373Z,7.47
2017-09-02T15:15:17.733Z,6.50
2017-09-02T15:17:46.097Z,5.57
2017-09-02T15:20:14.429Z,5.60
2017-09-02T15:22:43.688Z,5.17
2017-09-02T15:25:12.031Z,5.90
2017-09-02T15:27:40.394Z,5.47
2017-09-02T15:30:08.721Z,4.90
2017-09-02T15:32:37.082Z,4.60
2017-09-02T15:35:05.426Z,4.33
2017-09-02T15:37:33.753Z,5.70
2017-09-02T15:40:02.150Z,5.80
2017-09-02T15:42:30.492Z,5.77
2017-09-02T15:44:59.296Z,5.60
2017-09-02T15:47:27.646Z,6.80
2017-09-02T15:49:56.042Z,5.80
2017-09-02T15:52:24.410Z,5.70
2017-09-02T15:54:52.759Z,5.80
2017-09-02T15:57:21.129Z,6.00
2017-09-02T15:59:49.443Z,5.73
2017-09-02T16:02:18.246Z,5.40
2017-09-02T16:04:46.587Z,6.17
2017-09-02T16:07:14.926Z,5.40
2017-09-02T16:09:43.295Z,5.07
2017-09-02T16:12:12.403Z,5.20
2017-09-02T16:14:41.077Z,4.80
2017-09-02T16:17:09.403Z,6.20
2017-09-02T16:19:37.733Z,6.47
2017-09-02T16:22:06.112Z,5.37
2017-09-02T16:24:34.455Z,5.80
2017-09-02T16:27:02.822Z,5.80
2017-09-02T16:29:31.158Z,5.87
2017-09-02T16:31:59.506Z,5.33
2017-09-02T16:34:27.871Z,5.10
2017-09-02T16:36:56.237Z,5.40
2017-09-02T16:39:24.627Z,5.47
2017-09-02T16:41:52.951Z,5.60
2017-09-02T16:44:21.568Z,4.63
2017-09-02T16:46:49.896Z,5.30
2017-09-02T16:49:18.228Z,5.43
2017-09-02T16:51:46.571Z,5.10
2017-09-02T16:54:14.905Z,5.87
2017-09-02T16:56:43.261Z,6.03
2017-09-02T16:59:11.610Z,5.80
2017-09-02T17:01:39.971Z,6.10
2017-09-02T17:04:08.323Z,12.00
2017-09-02T17:06:36.676Z,5.00
2017-09-02T17:09:05.060Z,5.27
2017-09-02T17:11:33.413Z,4.90
2017-09-02T17:14:01.816Z,5.03
2017-09-02T17:16:30.317Z,6.53
2017-09-02T17:18:58.678Z,6.20
2017-09-02T17:21:27.026Z,5.77
2017-09-02T17:23:55.385Z,6.87
2017-09-02T17:26:24.582Z,6.33
2017-09-02T17:28:52.916Z,6.67
2017-09-02T17:31:21.382Z,6.20
2017-09-02T17:33:49.764Z,5.73
2017-09-02T17:36:18.100Z,6.30
2017-09-02T17:38:46.443Z,5.93
2017-09-02T17:41:14.776Z,5.70
2017-09-02T17:43:43.978Z,11.30
2017-09-02T17:46:12.903Z,5.67
2017-09-02T17:48:41.258Z,5.47
2017-09-02T17:51:09.635Z,5.67
2017-09-02T17:53:37.983Z,6.27
2017-09-02T17:56:06.332Z,5.33
2017-09-02T17:58:35.588Z,6.20
2017-09-02T18:01:04.504Z,5.17
2017-09-02T18:03:32.837Z,5.63
2017-09-02T18:06:01.149Z,6.57
2017-09-02T18:08:29.510Z,6.47
2017-09-02T18:10:57.856Z,5.60
2017-09-02T18:13:26.711Z,6.40
2017-09-02T18:15:55.046Z,6.00
2017-09-02T18:18:23.396Z,5.50
2017-09-02T18:20:51.738Z,5.80
2017-09-02T18:23:20.154Z,6.40
2017-09-02T18:25:48.901Z,6.70
2017-09-02T18:28:17.252Z,6.10
2017-09-02T18:30:45.916Z,6.40
2017-09-02T18:33:14.246Z,6.30
2017-09-02T18:35:42.568Z,5.80
2017-09-02T18:38:10.917Z,6.30
2017-09-02T18:40:42.232Z,6.43
2017-09-02T18:43:10.588Z,5.53
2017-09-02T18:45:38.914Z,7.90
2017-09-02T18:48:10.148Z,5.80
2017-09-02T18:50:38.500Z,6.43
2017-09-02T18:53:06.816Z,7.03
2017-09-02T18:55:35.952Z,7.13
2017-09-02T18:58:04.308Z,6.63
2017-09-02T19:00:32.683Z,6.40
2017-09-02T19:03:01.035Z,6.70
2017-09-02T19:05:29.414Z,5.90
2017-09-02T19:07:57.781Z,6.60
2017-09-02T19:10:26.125Z,7.40
2017-09-02T19:12:54.509Z,6.90
2017-09-02T19:15:24.403Z,8.40
2017-09-02T19:18:05.679Z,7.33
2017-09-02T19:20:51.195Z,8.23
2017-09-02T19:23:20.151Z,7.53
2017-09-02T19:25:48.542Z,7.50
2017-09-02T19:28:17.062Z,7.07
2017-09-02T19:30:45.417Z,7.37
2017-09-02T19:33:13.749Z,8.90
2017-09-02T19:35:42.096Z,8.00
2017-09-02T19:38:11.329Z,8.93
2017-09-02T19:40:40.246Z,8.23
2017-09-02T19:43:08.610Z,9.93
2017-09-02T19:45:36.949Z,8.60
2017-09-02T19:48:05.292Z,8.70
2017-09-02T19:50:33.614Z,8.77
2017-09-02T19:53:02.555Z,9.77
2017-09-02T19:55:30.900Z,9.27
2017-09-02T19:57:59.255Z,10.50
2017-09-02T20:00:27.613Z,10.40
2017-09-02T20:02:55.949Z,9.30
2017-09-02T20:05:26.032Z,8.30
2017-09-02T20:07:54.363Z,7.97
2017-09-02T20:10:22.971Z,8.80
2017-09-02T20:12:51.546Z,8.20
2017-09-02T20:15:20.305Z,8.63
2017-09-02T20:17:56.481Z,7.87
2017-09-02T20:20:24.845Z,8.87
2017-09-02T20:22:53.235Z,7.90
2017-09-02T20:25:22.173Z,7.77
2017-09-02T20:27:50.847Z,7.60
2017-09-02T20:30:19.551Z,8.53
2017-09-02T20:32:48.097Z,8.03
2017-09-02T20:35:16.515Z,7.73
2017-09-02T20:37:45.491Z,8.90
2017-09-02T20:40:13.936Z,7.23
2017-09-02T20:42:43.221Z,8.17
2017-09-02T20:45:12.114Z,7.17
2017-09-02T20:47:40.551Z,7.10
2017-09-02T20:50:08.977Z,9.00
2017-09-02T20:52:37.330Z,7.57
2017-09-02T20:55:05.691Z,7.60
2017-09-02T20:57:34.028Z,9.23
2017-09-02T21:00:02.370Z,7.37
2017-09-02T21:02:32.212Z,7.33
2017-09-02T21:05:00.799Z,7.50
2017-09-02T21:07:29.118Z,7.30
2017-09-02T21:09:57.459Z,7.17
2017-09-02T21:12:25.793Z,7.17
2017-09-02T21:14:54.650Z,7.87
2017-09-02T21:17:22.992Z,8.33
2017-09-02T21:19:51.729Z,7.63
2017-09-02T21:22:23.032Z,7.57
2017-09-02T21:24:51.849Z,7.00
2017-09-02T21:27:20.219Z,6.97
2017-09-02T21:29:48.604Z,7.13
2017-09-02T21:32:16.967Z,7.00
2017-09-02T21:34:45.292Z,7.03
2017-09-02T21:37:14.061Z,8.00
2017-09-02T21:39:42.490Z,7.13
2017-09-02T21:42:10.832Z,7.50
2017-09-02T21:44:39.211Z,7.40
2017-09-02T21:47:07.559Z,10.43
2017-09-02T21:49:36.280Z,6.53
2017-09-02T21:52:04.610Z,6.97
2017-09-02T21:54:32.926Z,6.97
2017-09-02T21:57:01.288Z,8.33
2017-09-02T21:59:29.731Z,7.07
2017-09-02T22:01:58.141Z,7.57
2017-09-02T22:04:26.769Z,8.30
2017-09-02T22:06:55.526Z,7.33
2017-09-02T22:09:23.891Z,7.73
2017-09-02T22:11:52.225Z,6.97
2017-09-02T22:14:20.568Z,7.77
2017-09-02T22:16:48.907Z,7.70
2017-09-02T22:19:17.249Z,7.10
2017-09-02T22:21:45.577Z,6.80
2017-09-02T22:24:14.129Z,7.93
2017-09-02T22:26:42.476Z,7.33
2017-09-02T22:29:10.878Z,6.80
2017-09-02T22:31:39.274Z,7.80
2017-09-02T22:34:07.605Z,8.00
2017-09-02T22:36:35.957Z,7.17
2017-09-02T22:39:04.461Z,7.40
2017-09-02T22:41:33.970Z,8.43
2017-09-02T22:44:02.393Z,6.60
2017-09-02T22:46:30.753Z,7.70
2017-09-02T22:48:59.103Z,7.10
2017-09-02T22:51:27.442Z,6.77
2017-09-02T22:53:55.820Z,6.23
2017-09-02T22:56:24.283Z,7.40
2017-09-02T22:58:52.936Z,7.40
2017-09-02T23:01:21.275Z,7.70
2017-09-02T23:03:49.741Z,7.87
2017-09-02T23:06:18.098Z,7.23
2017-09-02T23:08:46.434Z,7.00
2017-09-02T23:11:14.772Z,7.27
2017-09-02T23:13:44.218Z,7.30
2017-09-02T23:16:12.824Z,7.00
2017-09-02T23:18:41.237Z,7.73
2017-09-02T23:21:09.628Z,8.53
2017-09-02T23:23:38.041Z,10.27
2017-09-02T23:26:06.397Z,10.30
2017-09-02T23:28:34.719Z,9.93
2017-09-02T23:31:03.154Z,9.97
2017-09-02T23:33:31.486Z,10.90
2017-09-02T23:35:59.854Z,10.10
2017-09-02T23:38:28.204Z,10.67
2017-09-02T23:40:56.674Z,8.80
2017-09-02T23:43:25.056Z,8.30
2017-09-02T23:45:53.376Z,6.97
2017-09-02T23:48:21.833Z,7.60
2017-09-02T23:50:50.183Z,7.60
2017-09-02T23:53:18.581Z,7.07
2017-09-02T23:55:46.916Z,5.97
2017-09-02T23:58:15.726Z,6.10
